Terminal Aerodrome Forecast
Issued by NWS

Home | Current Version | Previous Version | Text Only | Print | Product List | Glossary On
Versions: 1 2 3 4 5 6 7 8 9 10 11 12 13 14 15 16 17
039
FTAK31 PAJN 302338
TAFAGY
TAF
PAGY 302338Z 0100/0124 21015KT P6SM -RA SCT006 SCT025 OVC040
      TEMPO 0100/0104 21015G25KT 6SM -RA SCT006 BKN025 OVC040
     FM011500 21018G28KT P6SM -SHRA SCT030 OVC060
     FM012200 21008KT 4SM -RA BR FEW006 BKN025 OVC050
      AMD LTD TO CLD VIS AND WIND=

USA.gov is the U.S. government's official web portal to all federal, state and local government web resources and services.